East Berkshire, New York
Current Conditions -  °F | °C
As of 7:53 AM on Monday 29 Dec 2014 (Local Time) from KBGM Reporting Station
Clear Clear  
Wind Chill: -8°   Ceiling: Unl
Heat Index: -4°   Visibility: 10mi
Dew Point: -7°   Wind: 6mph
Humidity: 81%   Direction: 290°WNW
Pressure: 30.1"   Gusts: NA
Location:  42.3124°N, 76.194°W
Report Text: KBGM 291253Z 29005KT 10SM CLR M04/M07 A3010 RMK AO2 SLP214 T10441072
Loading
Personal Weather Stations






























Interactive Weather Map New forecast layout! Learn more

10-Day Weather Forecast

Advertisements
Track Severe Weather on mobile